Time;durP1;ratioP1;P1;durP2;ratioP2;P2;SDS_P1;SDS_P2;PMS_P1;PMS_P2;Temp;Humidity;BMP_temperature;BMP_pressure;BME280_temperature;BME280_humidity;BME280_pressure;Samples;Min_cycle;Max_cycle;Signal;HPM_P1;HPM_P2
2023/11/05 00:01:07;;;;;;;9.45;1.50;;;9.80;99.90;;;;;;5055780;28;20033;-61
2023/11/05 00:03:32;;;;;;;16.52;1.92;;;9.80;99.90;;;;;;5060479;28;20020;-60
2023/11/05 00:05:58;;;;;;;13.98;1.77;;;9.90;99.90;;;;;;5063603;28;20032;-62
2023/11/05 00:08:23;;;;;;;12.05;1.70;;;9.90;99.90;;;;;;5065500;28;20025;-61
2023/11/05 00:10:49;;;;;;;10.57;1.55;;;10.00;99.90;;;;;;5057531;28;20032;-62
2023/11/05 00:13:14;;;;;;;14.65;2.13;;;10.00;99.90;;;;;;5058297;28;20040;-61
2023/11/05 00:15:40;;;;;;;13.85;2.10;;;10.10;99.90;;;;;;5058707;28;20043;-60
2023/11/05 00:18:05;;;;;;;8.00;1.52;;;10.10;99.90;;;;;;5069637;28;20035;-61
2023/11/05 00:20:31;;;;;;;11.00;1.88;;;10.10;99.90;;;;;;5062637;28;20410;-60
2023/11/05 00:22:57;;;;;;;15.07;2.30;;;10.20;99.90;;;;;;5060213;28;20475;-63
2023/11/05 00:25:22;;;;;;;10.73;1.80;;;10.20;99.90;;;;;;5054858;28;20471;-62
2023/11/05 00:27:48;;;;;;;18.70;2.05;;;10.30;99.90;;;;;;5065289;28;20047;-62
2023/11/05 00:30:13;;;;;;;14.85;1.40;;;10.30;99.90;;;;;;5057028;28;20093;-62
2023/11/05 00:32:39;;;;;;;18.92;1.67;;;10.40;99.90;;;;;;5061436;28;20033;-60
2023/11/05 00:35:05;;;;;;;13.80;1.73;;;10.30;99.90;;;;;;5059839;28;20441;-60
2023/11/05 00:37:30;;;;;;;8.68;1.45;;;10.40;99.90;;;;;;5064434;28;20037;-62
2023/11/05 00:39:56;;;;;;;13.73;1.50;;;10.40;99.90;;;;;;5056250;28;20035;-62
2023/11/05 00:42:21;;;;;;;10.25;1.75;;;10.40;99.90;;;;;;5060703;28;20020;-60
2023/11/05 00:44:47;;;;;;;9.57;1.83;;;10.40;99.90;;;;;;5055717;28;20017;-63
2023/11/05 00:47:12;;;;;;;9.45;2.38;;;10.40;99.90;;;;;;5066378;28;20399;-60
2023/11/05 00:49:38;;;;;;;14.88;1.70;;;10.40;99.90;;;;;;5062345;28;20032;-62
2023/11/05 00:52:04;;;;;;;4.90;1.27;;;10.50;99.90;;;;;;5060057;28;20039;-61
2023/11/05 00:54:29;;;;;;;12.43;1.85;;;10.50;99.90;;;;;;5058763;28;20037;-62
2023/11/05 00:56:55;;;;;;;9.85;1.45;;;10.50;99.90;;;;;;5060681;28;20111;-59
2023/11/05 00:59:20;;;;;;;12.25;1.27;;;10.50;99.90;;;;;;5060288;28;20032;-59
2023/11/05 01:01:46;;;;;;;11.02;1.88;;;10.60;99.90;;;;;;5061694;28;20475;-61
2023/11/05 01:04:11;;;;;;;5.05;1.50;;;10.60;99.90;;;;;;5059192;28;20032;-60
2023/11/05 01:06:37;;;;;;;10.57;1.75;;;10.60;99.90;;;;;;5059633;28;20028;-62
2023/11/05 01:09:03;;;;;;;7.82;2.00;;;10.60;99.90;;;;;;5064194;28;20060;-60
2023/11/05 01:11:29;;;;;;;6.68;1.52;;;10.60;99.90;;;;;;5063478;28;20029;-61
2023/11/05 01:13:54;;;;;;;6.82;1.73;;;10.50;99.90;;;;;;5057041;28;20024;-62
2023/11/05 01:16:20;;;;;;;12.52;1.52;;;10.60;99.90;;;;;;5058530;28;20041;-61
2023/11/05 01:18:45;;;;;;;13.90;1.38;;;10.60;99.90;;;;;;5059556;28;20027;-61
2023/11/05 01:21:12;;;;;;;13.25;1.60;;;10.60;99.90;;;;;;5055862;28;20072;-59
2023/11/05 01:23:38;;;;;;;5.93;1.30;;;10.70;99.90;;;;;;5059502;28;20406;-59
2023/11/05 01:26:04;;;;;;;10.25;1.35;;;10.70;99.90;;;;;;5057268;28;20025;-58
2023/11/05 01:28:29;;;;;;;14.80;1.83;;;10.70;99.90;;;;;;5060758;28;20020;-61
2023/11/05 01:30:55;;;;;;;7.57;1.15;;;10.70;99.90;;;;;;5059053;28;20384;-58
2023/11/05 01:33:20;;;;;;;3.80;0.93;;;10.80;99.90;;;;;;5059023;28;20033;-60
2023/11/05 01:35:46;;;;;;;15.02;1.88;;;10.80;99.90;;;;;;5053848;28;20041;-60
2023/11/05 01:38:11;;;;;;;10.32;1.58;;;10.80;99.90;;;;;;5056505;28;20036;-58
2023/11/05 01:40:37;;;;;;;12.85;1.58;;;10.90;99.90;;;;;;5059575;28;20033;-61
2023/11/05 01:43:02;;;;;;;6.60;1.20;;;10.90;99.90;;;;;;5060151;28;20029;-58
2023/11/05 01:45:28;;;;;;;13.60;1.48;;;10.90;99.90;;;;;;5060122;28;20475;-62
2023/11/05 01:47:53;;;;;;;11.95;1.30;;;10.90;99.90;;;;;;5061929;28;20029;-61
2023/11/05 01:50:21;;;;;;;7.90;2.45;;;10.90;99.90;;;;;;5057147;28;20390;-61
2023/11/05 01:52:48;;;;;;;3.47;1.05;;;10.90;99.90;;;;;;5055703;28;20029;-62
2023/11/05 01:55:14;;;;;;;18.40;1.90;;;10.90;99.90;;;;;;5059080;28;20086;-59
2023/11/05 01:57:40;;;;;;;15.88;1.27;;;10.90;99.90;;;;;;5059412;28;20554;-62
2023/11/05 02:00:06;;;;;;;15.05;2.00;;;10.90;99.90;;;;;;5059317;28;20120;-63
2023/11/05 02:02:33;;;;;;;11.75;1.40;;;11.00;99.90;;;;;;5058935;28;20036;-62
2023/11/05 02:04:59;;;;;;;6.85;1.10;;;11.00;99.90;;;;;;5059597;28;20017;-58
2023/11/05 02:07:25;;;;;;;12.65;1.35;;;11.00;99.90;;;;;;5060869;28;20415;-62
2023/11/05 02:09:50;;;;;;;6.00;1.20;;;11.00;99.90;;;;;;5060538;28;20479;-60
2023/11/05 02:12:16;;;;;;;7.03;1.15;;;11.00;99.90;;;;;;5059191;28;20078;-62
2023/11/05 02:14:50;;;;;;;16.13;1.52;;;11.00;99.90;;;;;;5062460;28;20530;-60
2023/11/05 02:17:16;;;;;;;12.07;0.80;;;11.00;99.90;;;;;;5062339;28;20037;-60
2023/11/05 02:19:41;;;;;;;9.25;1.20;;;11.00;99.90;;;;;;5056910;28;20089;-62
2023/11/05 02:22:14;;;;;;;12.23;1.80;;;11.00;99.90;;;;;;5059332;28;20032;-62
2023/11/05 02:24:45;;;;;;;7.75;1.13;;;11.00;99.90;;;;;;5063366;28;20080;-62
2023/11/05 02:27:10;;;;;;;6.78;1.15;;;11.10;99.90;;;;;;5060877;28;20079;-60
2023/11/05 02:29:36;;;;;;;14.48;1.13;;;11.10;99.90;;;;;;5066990;28;20395;-61
2023/11/05 02:32:03;;;;;;;9.00;1.10;;;11.00;99.90;;;;;;5062414;28;20064;-57
2023/11/05 02:34:32;;;;;;;5.45;1.13;;;11.10;99.90;;;;;;5060594;28;20499;-58
2023/11/05 02:36:58;;;;;;;8.52;1.27;;;11.10;99.90;;;;;;5057948;28;20029;-63
2023/11/05 02:39:25;;;;;;;7.63;1.23;;;11.10;99.90;;;;;;5063849;28;20024;-62
2023/11/05 02:41:52;;;;;;;9.15;1.08;;;11.00;99.90;;;;;;5064760;28;20441;-59
2023/11/05 02:44:18;;;;;;;8.30;1.27;;;11.00;99.90;;;;;;5066489;28;20028;-61
2023/11/05 02:46:43;;;;;;;10.88;1.33;;;11.00;99.90;;;;;;5062862;28;20028;-63
2023/11/05 02:49:11;;;;;;;11.18;1.48;;;11.00;99.90;;;;;;5065932;28;20096;-60
2023/11/05 02:51:37;;;;;;;14.05;2.00;;;11.00;99.90;;;;;;5057608;28;20021;-60
2023/11/05 02:54:02;;;;;;;9.52;2.30;;;11.00;99.90;;;;;;5062992;28;20032;-61
2023/11/05 02:56:28;;;;;;;6.00;1.48;;;10.90;99.90;;;;;;5061244;28;20024;-61
2023/11/05 02:58:53;;;;;;;12.65;1.40;;;10.90;99.90;;;;;;5064796;28;20096;-61
2023/11/05 03:01:23;;;;;;;6.15;1.15;;;10.90;99.90;;;;;;5061737;28;20028;-62
2023/11/05 03:03:49;;;;;;;13.85;1.60;;;10.80;99.90;;;;;;5061084;28;20495;-60
2023/11/05 03:06:14;;;;;;;5.72;1.40;;;10.80;99.90;;;;;;5058886;28;20090;-60
2023/11/05 03:08:40;;;;;;;11.23;1.60;;;10.80;99.90;;;;;;5064154;28;20487;-58
2023/11/05 03:11:05;;;;;;;3.92;1.05;;;10.80;99.90;;;;;;5056734;28;20033;-58
2023/11/05 03:13:31;;;;;;;11.95;1.20;;;10.80;99.90;;;;;;5064809;28;20036;-62
2023/11/05 03:15:57;;;;;;;3.05;1.08;;;10.80;99.90;;;;;;5061742;28;20044;-60
2023/11/05 03:18:22;;;;;;;10.48;1.52;;;10.80;99.90;;;;;;5064150;28;20078;-60
2023/11/05 03:20:49;;;;;;;4.43;1.30;;;10.70;99.90;;;;;;5059089;28;20482;-61
2023/11/05 03:23:14;;;;;;;6.13;1.40;;;10.80;99.90;;;;;;5067364;28;20047;-62
2023/11/05 03:25:41;;;;;;;8.65;1.45;;;10.80;99.90;;;;;;5058808;28;20087;-61
2023/11/05 03:28:07;;;;;;;5.78;0.98;;;10.70;99.90;;;;;;5063350;28;20029;-62
2023/11/05 03:30:32;;;;;;;10.57;1.48;;;10.80;99.90;;;;;;5062721;28;20059;-62
2023/11/05 03:32:58;;;;;;;8.07;1.05;;;10.80;99.90;;;;;;5060467;28;20032;-62
2023/11/05 03:35:23;;;;;;;2.92;0.90;;;10.80;99.90;;;;;;5064839;28;20024;-62
2023/11/05 03:37:49;;;;;;;3.95;0.95;;;10.80;99.90;;;;;;5057987;28;20031;-61
2023/11/05 03:40:14;;;;;;;8.40;1.27;;;10.80;99.90;;;;;;5063583;28;20074;-62
2023/11/05 03:42:40;;;;;;;1.45;0.82;;;10.80;99.90;;;;;;5054082;28;20554;-61
2023/11/05 03:45:06;;;;;;;3.97;1.27;;;10.90;99.90;;;;;;5058962;28;20032;-61
2023/11/05 03:47:31;;;;;;;1.75;0.60;;;10.80;99.90;;;;;;5059364;28;20483;-60
2023/11/05 03:49:57;;;;;;;2.58;1.02;;;10.80;99.90;;;;;;5056298;28;20025;-62
2023/11/05 03:52:22;;;;;;;3.53;0.70;;;10.90;99.90;;;;;;5066385;28;20028;-61
2023/11/05 03:54:48;;;;;;;4.00;0.70;;;10.90;99.90;;;;;;5062617;28;20527;-60
2023/11/05 03:57:13;;;;;;;1.70;0.40;;;10.90;99.90;;;;;;5057623;28;20411;-59
2023/11/05 03:59:39;;;;;;;2.40;0.40;;;10.90;99.90;;;;;;5060735;28;20041;-60
2023/11/05 04:02:05;;;;;;;2.20;0.50;;;10.90;99.90;;;;;;5062723;28;20028;-57
2023/11/05 04:04:30;;;;;;;0.95;0.50;;;11.00;99.90;;;;;;5061869;28;20020;-60
2023/11/05 04:06:56;;;;;;;4.07;0.60;;;11.00;99.90;;;;;;5057817;28;20029;-60
2023/11/05 04:09:22;;;;;;;4.53;0.47;;;11.00;99.90;;;;;;5058237;28;20033;-61
2023/11/05 04:11:48;;;;;;;4.13;0.40;;;11.00;99.90;;;;;;5060398;28;20028;-61
2023/11/05 04:14:13;;;;;;;1.65;0.30;;;11.00;99.90;;;;;;5056091;28;20074;-59
2023/11/05 04:16:39;;;;;;;3.78;0.50;;;11.00;99.90;;;;;;5061059;28;20033;-59
2023/11/05 04:19:04;;;;;;;3.22;0.52;;;11.00;99.90;;;;;;5060649;28;20060;-60
2023/11/05 04:21:30;;;;;;;1.85;0.40;;;10.90;99.90;;;;;;5064344;28;20016;-59
2023/11/05 04:23:56;;;;;;;2.60;0.40;;;10.90;99.90;;;;;;5056474;28;20025;-59
2023/11/05 04:26:21;;;;;;;3.22;0.25;;;10.80;99.90;;;;;;5063547;28;20023;-61
2023/11/05 04:28:47;;;;;;;2.05;0.47;;;10.80;99.90;;;;;;5055207;28;20025;-60
2023/11/05 04:31:12;;;;;;;0.57;0.30;;;10.80;99.90;;;;;;5067761;28;20036;-59
2023/11/05 04:33:38;;;;;;;0.93;0.30;;;10.70;99.90;;;;;;5056911;28;20033;-52
2023/11/05 04:36:04;;;;;;;1.45;0.40;;;10.70;99.90;;;;;;5057147;28;20042;-58
2023/11/05 04:38:30;;;;;;;2.65;0.15;;;10.80;99.90;;;;;;5062372;28;20394;-59
2023/11/05 04:40:55;;;;;;;2.55;0.40;;;10.80;99.90;;;;;;5055405;28;20078;-60
2023/11/05 04:43:21;;;;;;;2.38;0.50;;;10.80;99.90;;;;;;5063796;28;20029;-60
2023/11/05 04:45:46;;;;;;;2.05;0.30;;;10.80;99.90;;;;;;5061718;28;20024;-60
2023/11/05 04:48:12;;;;;;;2.70;0.50;;;10.80;99.90;;;;;;5059254;28;20017;-60
2023/11/05 04:50:37;;;;;;;3.25;0.40;;;10.90;99.90;;;;;;5062589;28;20033;-60
2023/11/05 04:53:03;;;;;;;1.42;0.25;;;10.80;99.90;;;;;;5061377;28;20043;-61
2023/11/05 04:55:29;;;;;;;1.20;0.30;;;10.90;99.90;;;;;;5056389;28;20068;-60
2023/11/05 04:57:55;;;;;;;1.85;0.35;;;10.90;99.90;;;;;;5056590;28;20107;-61
2023/11/05 05:00:21;;;;;;;1.10;0.30;;;10.90;99.90;;;;;;5056304;28;20070;-62
2023/11/05 05:02:47;;;;;;;0.63;0.30;;;11.00;99.90;;;;;;5058411;28;20024;-59
2023/11/05 05:05:12;;;;;;;1.90;0.35;;;11.00;99.90;;;;;;5060005;28;20020;-61
2023/11/05 05:07:38;;;;;;;1.77;0.50;;;11.00;99.90;;;;;;5061500;28;20021;-61
2023/11/05 05:10:05;;;;;;;3.05;0.40;;;11.00;99.90;;;;;;5061015;28;20035;-59
2023/11/05 05:12:33;;;;;;;0.20;0.20;;;11.00;99.90;;;;;;5057306;28;20115;-59
2023/11/05 05:15:03;;;;;;;1.20;0.30;;;11.00;99.90;;;;;;5057405;28;20036;-62
2023/11/05 05:17:28;;;;;;;3.35;1.75;;;11.00;99.90;;;;;;5064056;28;20024;-59
2023/11/05 05:19:54;;;;;;;3.65;0.47;;;11.00;99.90;;;;;;5057707;28;20395;-61
2023/11/05 05:22:19;;;;;;;4.13;0.40;;;11.00;99.90;;;;;;5067491;28;20052;-61
2023/11/05 05:24:45;;;;;;;3.25;0.50;;;11.00;99.90;;;;;;5058570;28;20462;-59
2023/11/05 05:27:11;;;;;;;3.03;0.50;;;11.10;99.90;;;;;;5056551;28;20029;-61
2023/11/05 05:29:37;;;;;;;1.25;0.30;;;11.00;99.90;;;;;;5060315;28;20120;-61
2023/11/05 05:32:04;;;;;;;0.63;0.40;;;11.00;99.90;;;;;;5068280;28;20070;-61
2023/11/05 05:34:30;;;;;;;0.57;0.35;;;11.00;99.90;;;;;;5063472;28;20075;-60
2023/11/05 05:36:55;;;;;;;4.57;0.40;;;11.00;99.90;;;;;;5057714;28;20434;-57
2023/11/05 05:39:21;;;;;;;3.47;0.47;;;11.00;99.90;;;;;;5063201;28;20035;-59
2023/11/05 05:41:47;;;;;;;2.25;0.40;;;11.00;99.90;;;;;;5064242;28;20024;-60
2023/11/05 05:44:13;;;;;;;3.50;0.40;;;11.00;99.90;;;;;;5065858;28;20029;-58
2023/11/05 05:46:38;;;;;;;1.73;0.20;;;10.90;99.90;;;;;;5064113;28;20086;-59
2023/11/05 05:49:04;;;;;;;2.13;0.25;;;10.90;99.90;;;;;;5062378;28;20071;-61
2023/11/05 05:51:30;;;;;;;5.35;0.40;;;10.90;99.90;;;;;;5066675;28;20029;-62
2023/11/05 05:53:55;;;;;;;2.30;0.30;;;10.90;99.90;;;;;;5058961;28;20036;-62
2023/11/05 05:56:21;;;;;;;2.13;0.60;;;10.80;99.90;;;;;;5063148;28;20067;-60
2023/11/05 05:58:47;;;;;;;3.65;0.60;;;10.80;99.90;;;;;;5060258;28;20458;-60
2023/11/05 06:01:13;;;;;;;0.80;0.30;;;10.90;99.90;;;;;;5064214;28;20070;-59
2023/11/05 06:03:38;;;;;;;1.85;0.40;;;10.80;99.90;;;;;;5063731;28;20403;-61
2023/11/05 06:06:04;;;;;;;1.98;0.65;;;10.80;99.90;;;;;;5067001;28;20364;-62
2023/11/05 06:08:30;;;;;;;1.98;0.40;;;10.80;99.90;;;;;;5061608;28;20024;-60
2023/11/05 06:10:55;;;;;;;0.93;0.35;;;10.80;99.90;;;;;;5061324;28;20033;-60
2023/11/05 06:13:21;;;;;;;1.90;0.43;;;10.70;99.90;;;;;;5063034;28;20040;-61
2023/11/05 06:15:49;;;;;;;6.93;0.40;;;10.70;99.90;;;;;;5068628;28;20032;-61
2023/11/05 06:18:15;;;;;;;0.25;0.25;;;10.70;99.90;;;;;;5062320;28;20028;-61
2023/11/05 06:20:40;;;;;;;2.28;0.65;;;10.70;99.90;;;;;;5070458;28;20091;-59
2023/11/05 06:23:06;;;;;;;2.33;0.30;;;10.60;99.90;;;;;;5064886;28;20048;-61
2023/11/05 06:25:32;;;;;;;3.83;0.40;;;10.60;99.90;;;;;;5062748;28;20029;-60
2023/11/05 06:27:57;;;;;;;0.65;0.22;;;10.60;99.90;;;;;;5057936;28;20035;-62
2023/11/05 06:30:23;;;;;;;0.65;0.40;;;10.60;99.90;;;;;;5058551;28;20029;-62
2023/11/05 06:32:49;;;;;;;0.77;0.30;;;10.50;99.90;;;;;;5064624;28;20029;-61
2023/11/05 06:35:15;;;;;;;3.83;0.77;;;10.50;99.90;;;;;;5058680;28;20029;-60
2023/11/05 06:37:41;;;;;;;1.80;0.40;;;10.50;99.90;;;;;;5058457;28;20037;-59
2023/11/05 06:40:07;;;;;;;2.22;0.47;;;10.50;99.90;;;;;;5059704;28;20037;-58
2023/11/05 06:42:33;;;;;;;3.15;0.50;;;10.40;99.90;;;;;;5062243;28;20033;-58
2023/11/05 06:44:58;;;;;;;1.60;0.50;;;10.40;99.90;;;;;;5059580;28;20086;-59
2023/11/05 06:47:24;;;;;;;4.43;0.40;;;10.40;99.90;;;;;;5062208;28;20078;-61
2023/11/05 06:49:49;;;;;;;0.88;0.30;;;10.40;99.90;;;;;;5063754;28;20070;-62
2023/11/05 06:52:15;;;;;;;2.00;0.50;;;10.40;99.90;;;;;;5064174;28;20029;-62
2023/11/05 06:54:41;;;;;;;1.25;0.30;;;10.30;99.90;;;;;;5057504;28;20048;-58
2023/11/05 06:57:06;;;;;;;2.70;0.43;;;10.30;99.90;;;;;;5063500;28;20398;-61
2023/11/05 06:59:32;;;;;;;10.25;0.40;;;10.20;99.90;;;;;;5073706;28;20116;-61
2023/11/05 07:01:58;;;;;;;2.10;0.40;;;10.20;99.90;;;;;;5063962;28;20072;-61
2023/11/05 07:04:23;;;;;;;2.42;0.40;;;10.20;99.90;;;;;;5061437;28;20013;-62
2023/11/05 07:06:50;;;;;;;1.10;0.40;;;10.20;99.90;;;;;;5058894;28;20036;-59
2023/11/05 07:09:15;;;;;;;2.90;0.40;;;10.20;99.90;;;;;;5055272;28;20042;-60
2023/11/05 07:11:41;;;;;;;2.63;0.40;;;10.20;99.90;;;;;;5064215;28;20144;-64
2023/11/05 07:14:07;;;;;;;9.38;2.85;;;10.20;99.90;;;;;;5059592;28;20021;-61
2023/11/05 07:16:33;;;;;;;6.90;0.47;;;10.20;99.90;;;;;;5059023;28;20568;-62
2023/11/05 07:18:58;;;;;;;1.95;0.28;;;10.20;99.90;;;;;;5061540;28;20166;-60
2023/11/05 07:21:24;;;;;;;2.85;0.50;;;10.20;99.90;;;;;;5064407;28;20103;-60
2023/11/05 07:23:50;;;;;;;2.35;0.60;;;10.30;99.90;;;;;;5061626;28;20071;-63
2023/11/05 07:26:15;;;;;;;3.42;0.55;;;10.30;99.90;;;;;;5059404;28;20033;-62
2023/11/05 07:28:42;;;;;;;5.28;0.57;;;10.30;99.90;;;;;;5060302;28;20033;-63
2023/11/05 07:31:11;;;;;;;1.25;0.60;;;10.30;99.90;;;;;;5061468;28;20041;-63
2023/11/05 07:33:37;;;;;;;3.92;0.57;;;10.40;99.90;;;;;;5062892;28;20025;-63
2023/11/05 07:36:03;;;;;;;1.80;0.50;;;10.40;99.90;;;;;;5055781;28;20956;-63
2023/11/05 07:38:29;;;;;;;3.15;0.60;;;10.40;99.90;;;;;;5060328;28;20025;-63
2023/11/05 07:40:55;;;;;;;2.00;0.50;;;10.40;99.90;;;;;;5061582;28;20573;-63
2023/11/05 07:43:20;;;;;;;8.30;0.45;;;10.40;99.90;;;;;;5064019;28;20105;-63
2023/11/05 07:45:46;;;;;;;1.02;0.40;;;10.40;99.90;;;;;;5060204;28;20028;-62
2023/11/05 07:48:11;;;;;;;3.90;0.63;;;10.40;99.90;;;;;;5059624;28;20020;-63
2023/11/05 07:50:37;;;;;;;4.45;0.77;;;10.30;99.90;;;;;;5063105;28;20082;-63
2023/11/05 07:53:03;;;;;;;7.40;1.45;;;10.30;99.90;;;;;;5062774;28;20033;-64
2023/11/05 07:55:28;;;;;;;1.20;0.40;;;10.40;99.90;;;;;;5060107;28;20046;-63
2023/11/05 07:57:54;;;;;;;3.10;0.50;;;10.40;99.90;;;;;;5056406;28;20045;-63
2023/11/05 08:00:20;;;;;;;6.55;0.70;;;10.40;99.90;;;;;;5052630;28;20433;-64
2023/11/05 08:02:48;;;;;;;0.73;0.40;;;10.40;99.90;;;;;;5052569;28;20021;-59
2023/11/05 08:05:15;;;;;;;1.15;0.50;;;10.40;99.90;;;;;;5052844;28;20047;-63
2023/11/05 08:07:41;;;;;;;0.30;0.30;;;10.30;99.90;;;;;;5053136;28;20037;-64
2023/11/05 08:10:07;;;;;;;3.40;0.60;;;10.30;99.90;;;;;;5055936;28;20032;-62
2023/11/05 08:12:34;;;;;;;2.13;0.60;;;10.30;99.90;;;;;;5057703;28;20506;-60
2023/11/05 08:14:59;;;;;;;1.13;0.75;;;10.30;99.90;;;;;;5051848;28;20483;-62
2023/11/05 08:17:25;;;;;;;2.65;0.70;;;10.30;99.90;;;;;;5054012;28;20039;-63
2023/11/05 08:19:51;;;;;;;2.17;0.50;;;10.40;99.90;;;;;;5055174;28;20028;-61
2023/11/05 08:22:17;;;;;;;6.18;0.85;;;10.50;99.90;;;;;;5054456;28;20032;-62
2023/11/05 08:24:44;;;;;;;2.67;0.52;;;10.60;99.90;;;;;;5054695;28;20031;-62
2023/11/05 08:27:10;;;;;;;2.10;0.60;;;10.70;99.90;;;;;;5062995;28;20016;-62
2023/11/05 08:29:36;;;;;;;0.88;0.50;;;10.70;99.90;;;;;;5065010;28;20483;-62
2023/11/05 08:32:01;;;;;;;3.15;0.65;;;10.80;99.90;;;;;;5060476;28;20434;-63
2023/11/05 08:34:27;;;;;;;4.10;0.70;;;10.80;99.90;;;;;;5056092;28;20070;-63
2023/11/05 08:36:54;;;;;;;4.53;0.73;;;10.90;99.90;;;;;;5063687;28;20033;-65
2023/11/05 08:39:20;;;;;;;1.15;0.50;;;10.90;99.90;;;;;;5059800;28;20021;-66
2023/11/05 08:41:46;;;;;;;3.22;0.73;;;10.90;99.90;;;;;;5062583;28;20441;-66
2023/11/05 08:44:11;;;;;;;1.67;0.55;;;10.90;99.90;;;;;;5061233;28;20029;-66
2023/11/05 08:46:37;;;;;;;0.73;0.57;;;11.00;99.90;;;;;;5057010;28;20028;-66
2023/11/05 08:49:02;;;;;;;1.00;0.60;;;11.10;99.90;;;;;;5060469;28;20105;-66
2023/11/05 08:51:29;;;;;;;1.70;0.68;;;11.10;99.90;;;;;;5055364;28;20029;-67
2023/11/05 08:53:54;;;;;;;3.75;0.80;;;11.10;99.90;;;;;;5060437;28;20047;-67
2023/11/05 08:56:21;;;;;;;2.95;0.90;;;11.20;99.90;;;;;;5061129;28;20033;-66
2023/11/05 08:58:48;;;;;;;0.73;0.60;;;11.20;99.90;;;;;;5059910;28;20425;-65
2023/11/05 09:01:16;;;;;;;6.07;1.10;;;11.30;99.90;;;;;;5053811;28;20852;-67
2023/11/05 09:03:45;;;;;;;1.23;0.60;;;11.30;99.90;;;;;;5059600;28;20071;-66
2023/11/05 09:06:11;;;;;;;1.70;0.73;;;11.30;99.90;;;;;;5060169;28;20112;-67
2023/11/05 09:08:40;;;;;;;2.50;0.80;;;11.30;99.90;;;;;;5062085;28;20100;-66
2023/11/05 09:11:09;;;;;;;2.08;0.60;;;11.30;99.90;;;;;;5057022;28;20395;-66
2023/11/05 09:13:35;;;;;;;1.65;0.30;;;11.30;99.90;;;;;;5059221;28;20032;-66
2023/11/05 09:16:02;;;;;;;0.95;0.50;;;11.40;99.90;;;;;;5056241;28;20042;-65
2023/11/05 09:18:28;;;;;;;0.90;0.60;;;11.30;99.90;;;;;;5062662;28;20043;-65
2023/11/05 09:20:56;;;;;;;1.25;0.80;;;11.30;99.90;;;;;;5060512;28;20108;-62
2023/11/05 09:23:22;;;;;;;2.05;0.70;;;11.30;99.90;;;;;;5057815;28;20024;-66
2023/11/05 09:25:48;;;;;;;1.50;0.50;;;11.30;99.90;;;;;;5057325;28;20024;-66
2023/11/05 09:28:13;;;;;;;2.97;0.75;;;11.30;99.90;;;;;;5059956;28;20033;-66
2023/11/05 09:30:39;;;;;;;3.30;0.77;;;11.40;99.90;;;;;;5055561;28;20036;-67
2023/11/05 09:33:05;;;;;;;0.50;0.50;;;11.50;99.90;;;;;;5061886;28;20036;-66
2023/11/05 09:35:31;;;;;;;1.65;0.73;;;11.60;99.90;;;;;;5057768;28;20437;-66
2023/11/05 09:37:56;;;;;;;1.17;0.57;;;11.60;99.90;;;;;;5060053;28;20036;-66
2023/11/05 09:40:22;;;;;;;3.33;0.70;;;11.50;99.90;;;;;;5057894;28;20087;-66
2023/11/05 09:43:00;;;;;;;0.88;0.52;;;11.60;99.90;;;;;;5063839;28;20070;-67
2023/11/05 09:45:33;;;;;;;1.58;0.57;;;11.60;99.90;;;;;;5056164;28;20491;-64
2023/11/05 09:48:04;;;;;;;3.35;0.73;;;11.70;99.90;;;;;;5057129;28;20062;-65
2023/11/05 09:50:32;;;;;;;2.13;0.60;;;11.70;99.90;;;;;;5053078;28;20025;-65
2023/11/05 09:53:14;;;;;;;3.90;0.95;;;11.70;99.90;;;;;;5057341;28;20478;-64
2023/11/05 09:55:41;;;;;;;1.65;0.70;;;11.70;99.90;;;;;;5058920;28;20029;-65
2023/11/05 09:58:08;;;;;;;3.03;0.93;;;11.70;99.90;;;;;;5058595;28;20089;-65
2023/11/05 10:00:34;;;;;;;4.45;0.70;;;11.50;99.90;;;;;;5055947;28;20435;-66
2023/11/05 10:03:07;;;;;;;1.48;0.43;;;11.60;99.90;;;;;;5054764;28;20033;-66
2023/11/05 10:05:35;;;;;;;2.75;0.80;;;11.60;99.90;;;;;;5057755;28;20029;-65
2023/11/05 10:08:05;;;;;;;2.38;0.65;;;11.60;99.90;;;;;;5056210;28;20471;-65
2023/11/05 10:10:31;;;;;;;3.67;0.70;;;11.70;99.90;;;;;;5057665;28;20052;-66
2023/11/05 10:12:57;;;;;;;2.55;0.50;;;11.70;99.90;;;;;;5057419;28;20021;-65
2023/11/05 10:15:23;;;;;;;2.35;0.70;;;11.70;99.90;;;;;;5058846;28;20089;-64
2023/11/05 10:17:50;;;;;;;3.95;0.80;;;11.70;99.90;;;;;;5065002;28;20375;-65
2023/11/05 10:20:16;;;;;;;3.20;0.60;;;11.70;99.90;;;;;;5062257;28;20036;-64
2023/11/05 10:22:45;;;;;;;1.20;0.40;;;11.80;99.90;;;;;;5061929;28;20092;-65
2023/11/05 10:25:36;;;;;;;1.92;0.52;;;11.70;99.90;;;;;;5066016;28;20106;-64
2023/11/05 10:28:03;;;;;;;3.20;0.50;;;11.70;99.90;;;;;;5063406;28;20063;-65
2023/11/05 10:30:31;;;;;;;0.40;0.40;;;11.70;99.90;;;;;;5061990;28;20060;-65
2023/11/05 10:32:57;;;;;;;2.13;0.40;;;11.70;99.90;;;;;;5059492;28;20037;-64
2023/11/05 10:35:32;;;;;;;3.63;0.60;;;11.80;99.90;;;;;;5060331;28;20083;-63
2023/11/05 10:37:58;;;;;;;1.92;0.85;;;11.80;99.90;;;;;;5061741;28;20040;-66
2023/11/05 10:40:24;;;;;;;1.52;0.50;;;11.90;99.90;;;;;;5059662;28;20025;-65
2023/11/05 10:42:50;;;;;;;1.17;0.30;;;11.90;99.90;;;;;;5062772;28;20107;-61
2023/11/05 10:45:18;;;;;;;2.78;0.60;;;12.00;99.90;;;;;;5060462;28;20032;-65
2023/11/05 10:47:50;;;;;;;3.38;0.40;;;12.00;99.90;;;;;;5061214;28;20082;-66
2023/11/05 10:50:19;;;;;;;1.05;0.30;;;12.00;99.90;;;;;;5065207;28;20037;-65
2023/11/05 10:52:48;;;;;;;4.38;0.40;;;12.00;99.90;;;;;;5063519;28;20039;-66
2023/11/05 10:55:13;;;;;;;5.38;0.50;;;12.00;99.90;;;;;;5061859;28;20036;-66
2023/11/05 10:57:43;;;;;;;2.42;0.50;;;12.00;99.90;;;;;;5066143;28;20372;-65
2023/11/05 11:00:17;;;;;;;1.35;0.55;;;12.10;99.90;;;;;;5059629;28;20033;-65
2023/11/05 11:02:43;;;;;;;0.98;0.50;;;12.10;99.90;;;;;;5065525;28;20028;-66
2023/11/05 11:05:13;;;;;;;3.95;0.52;;;12.20;99.90;;;;;;5061981;28;20033;-66
2023/11/05 11:07:42;;;;;;;1.10;0.50;;;12.20;99.90;;;;;;5062931;28;20032;-66
2023/11/05 11:10:20;;;;;;;4.75;0.60;;;12.30;99.90;;;;;;5056039;28;20033;-66
2023/11/05 11:12:45;;;;;;;1.23;0.65;;;12.20;99.90;;;;;;5058472;28;20419;-64
2023/11/05 11:15:35;;;;;;;4.13;0.77;;;12.20;99.90;;;;;;5061950;28;20044;-64
2023/11/05 11:18:05;;;;;;;3.50;0.80;;;12.10;99.90;;;;;;5059495;28;20060;-68
2023/11/05 11:20:31;;;;;;;2.47;0.55;;;12.10;99.90;;;;;;5057264;28;20035;-63
2023/11/05 11:23:01;;;;;;;4.22;0.70;;;11.90;99.90;;;;;;5060983;28;20033;-65
2023/11/05 11:25:27;;;;;;;2.50;0.90;;;11.80;99.90;;;;;;5067395;28;20033;-64
2023/11/05 11:27:52;;;;;;;2.55;0.73;;;11.80;99.90;;;;;;5060064;28;20066;-66
2023/11/05 11:30:19;;;;;;;3.92;0.70;;;11.80;99.90;;;;;;5059750;28;20552;-65
2023/11/05 11:32:44;;;;;;;5.50;2.22;;;11.90;99.90;;;;;;5061990;28;20043;-65
2023/11/05 11:35:10;;;;;;;3.58;0.70;;;12.00;99.90;;;;;;5064337;28;20032;-65
2023/11/05 11:37:37;;;;;;;2.55;0.73;;;12.10;99.90;;;;;;5061663;28;20124;-63
2023/11/05 11:40:15;;;;;;;5.45;0.90;;;12.00;99.90;;;;;;5058745;28;20055;-65
2023/11/05 11:42:41;;;;;;;3.10;0.80;;;12.00;99.90;;;;;;5058385;28;20055;-66
2023/11/05 11:45:06;;;;;;;6.18;1.10;;;12.00;99.90;;;;;;5056113;28;20054;-64
2023/11/05 11:47:33;;;;;;;2.83;1.00;;;11.90;99.90;;;;;;5058026;28;20412;-65
2023/11/05 11:50:05;;;;;;;5.45;1.38;;;11.80;99.90;;;;;;5060808;28;20077;-65
2023/11/05 11:52:42;;;;;;;4.97;1.02;;;11.70;99.90;;;;;;5058131;28;20067;-65
2023/11/05 11:55:08;;;;;;;2.85;1.20;;;11.70;99.90;;;;;;5058096;28;20025;-63
2023/11/05 11:57:36;;;;;;;9.07;1.38;;;11.60;99.90;;;;;;5054938;28;20491;-64
2023/11/05 12:00:03;;;;;;;4.28;1.42;;;11.60;99.90;;;;;;5055959;28;20029;-66
2023/11/05 12:02:29;;;;;;;8.73;1.63;;;11.70;99.90;;;;;;5052059;28;20024;-65
2023/11/05 12:04:57;;;;;;;9.05;2.42;;;11.70;99.90;;;;;;5054105;28;20041;-65
2023/11/05 12:07:22;;;;;;;6.88;1.67;;;11.70;99.90;;;;;;5055882;28;20043;-64
2023/11/05 12:09:48;;;;;;;7.00;1.33;;;11.80;99.90;;;;;;5054634;28;20021;-67
2023/11/05 12:12:18;;;;;;;6.40;1.88;;;11.80;99.90;;;;;;5056771;28;20025;-65
2023/11/05 12:14:44;;;;;;;5.75;1.40;;;11.90;99.90;;;;;;5058839;28;20036;-67
2023/11/05 12:17:10;;;;;;;9.63;1.95;;;12.00;99.90;;;;;;5052283;28;20103;-64
2023/11/05 12:19:35;;;;;;;7.25;1.35;;;12.00;99.90;;;;;;5055756;28;20094;-66
2023/11/05 12:22:01;;;;;;;9.75;1.63;;;12.10;99.90;;;;;;5054779;28;20112;-65
2023/11/05 12:24:27;;;;;;;8.60;1.95;;;12.20;99.90;;;;;;5057307;28;20029;-66
2023/11/05 12:26:53;;;;;;;4.15;1.40;;;12.20;99.90;;;;;;5056508;28;20020;-65
2023/11/05 12:29:19;;;;;;;7.32;2.03;;;12.40;99.90;;;;;;5055381;28;20090;-65
2023/11/05 12:31:45;;;;;;;7.88;2.00;;;12.70;99.90;;;;;;5055011;28;20056;-66
2023/11/05 12:34:11;;;;;;;6.65;2.38;;;12.80;99.90;;;;;;5055443;28;20024;-64
2023/11/05 12:36:36;;;;;;;10.18;1.77;;;12.80;99.90;;;;;;5055601;28;20078;-65
2023/11/05 12:39:03;;;;;;;7.55;2.53;;;12.80;99.90;;;;;;5058430;28;20048;-63
2023/11/05 12:41:30;;;;;;;10.70;1.83;;;12.80;99.90;;;;;;5055978;28;20403;-66